Surfside, California
Current Conditions -  °F | °C
As of 3:58 AM on Thursday 27 Nov 2014 (Local Time) from KSLI Reporting Station
Clear Clear  
Wind Chill: 47°   Ceiling: Unl
Heat Index: 49°   Visibility: 10mi
Dew Point: 40°   Wind: 5mph
Humidity: 72%   Direction: 330°NNW
Pressure: 30.08"   Gusts: NA
Location:  33.73°N, 118.08°W
Report Text: KSLI 271158Z AUTO 33004KT 10SM CLR 10/05 A3008 RMK AO2 SLP189 T00950046 10157 20089 58005
Loading
Personal Weather Stations






























Interactive Weather Map New forecast layout! Learn more

10-Day Weather Forecast

Advertisements
Track Severe Weather on mobile